sensor_id;sensor_type;location;lat;lon;timestamp;temperature;humidity
3602;DHT22;1815;50.950;6.920;2022-11-13T00:01:31;11.20;99.90
3602;DHT22;1815;50.950;6.920;2022-11-13T00:04:15;11.20;99.90
3602;DHT22;1815;50.950;6.920;2022-11-13T00:06:59;11.20;99.90
3602;DHT22;1815;50.950;6.920;2022-11-13T00:09:44;11.20;99.90
3602;DHT22;1815;50.950;6.920;2022-11-13T00:12:28;11.10;99.90
3602;DHT22;1815;50.950;6.920;2022-11-13T00:15:13;11.10;99.90
3602;DHT22;1815;50.950;6.920;2022-11-13T00:18:00;11.10;99.90
3602;DHT22;1815;50.950;6.920;2022-11-13T00:20:45;11.10;99.90
3602;DHT22;1815;50.950;6.920;2022-11-13T00:23:31;11.10;99.90
3602;DHT22;1815;50.950;6.920;2022-11-13T00:26:20;11.00;99.90
3602;DHT22;1815;50.950;6.920;2022-11-13T00:29:04;11.00;99.90
3602;DHT22;1815;50.950;6.920;2022-11-13T00:31:49;11.00;99.90
3602;DHT22;1815;50.950;6.920;2022-11-13T00:34:33;11.00;99.90
3602;DHT22;1815;50.950;6.920;2022-11-13T00:37:18;11.00;99.90
3602;DHT22;1815;50.950;6.920;2022-11-13T00:40:02;11.00;99.90
3602;DHT22;1815;50.950;6.920;2022-11-13T00:42:47;10.90;99.90
3602;DHT22;1815;50.950;6.920;2022-11-13T00:45:31;11.00;99.90
3602;DHT22;1815;50.950;6.920;2022-11-13T00:48:15;11.00;99.90
3602;DHT22;1815;50.950;6.920;2022-11-13T00:50:59;11.00;99.90
3602;DHT22;1815;50.950;6.920;2022-11-13T00:53:44;11.00;99.90
3602;DHT22;1815;50.950;6.920;2022-11-13T00:56:28;11.00;99.90
3602;DHT22;1815;50.950;6.920;2022-11-13T00:59:12;11.00;99.90
3602;DHT22;1815;50.950;6.920;2022-11-13T01:01:57;11.00;99.90
3602;DHT22;1815;50.950;6.920;2022-11-13T01:04:41;11.00;99.90
3602;DHT22;1815;50.950;6.920;2022-11-13T01:07:26;11.00;99.90
3602;DHT22;1815;50.950;6.920;2022-11-13T01:10:10;11.00;99.90
3602;DHT22;1815;50.950;6.920;2022-11-13T01:12:56;11.00;99.90
3602;DHT22;1815;50.950;6.920;2022-11-13T01:15:41;11.00;99.90
3602;DHT22;1815;50.950;6.920;2022-11-13T01:18:26;10.90;99.90
3602;DHT22;1815;50.950;6.920;2022-11-13T01:21:15;10.90;99.90
3602;DHT22;1815;50.950;6.920;2022-11-13T01:24:00;10.90;99.90
3602;DHT22;1815;50.950;6.920;2022-11-13T01:26:44;10.90;99.90
3602;DHT22;1815;50.950;6.920;2022-11-13T01:29:29;10.90;99.90
3602;DHT22;1815;50.950;6.920;2022-11-13T01:32:14;10.90;99.90
3602;DHT22;1815;50.950;6.920;2022-11-13T01:34:58;10.80;99.90
3602;DHT22;1815;50.950;6.920;2022-11-13T01:37:42;10.90;99.90
3602;DHT22;1815;50.950;6.920;2022-11-13T01:40:27;10.80;99.90
3602;DHT22;1815;50.950;6.920;2022-11-13T01:43:21;10.80;99.90
3602;DHT22;1815;50.950;6.920;2022-11-13T01:46:19;10.80;99.90
3602;DHT22;1815;50.950;6.920;2022-11-13T01:49:13;10.80;99.90
3602;DHT22;1815;50.950;6.920;2022-11-13T01:52:06;10.70;99.90
3602;DHT22;1815;50.950;6.920;2022-11-13T01:54:57;10.70;99.90
3602;DHT22;1815;50.950;6.920;2022-11-13T01:57:43;10.70;99.90
3602;DHT22;1815;50.950;6.920;2022-11-13T02:00:27;10.60;99.90
3602;DHT22;1815;50.950;6.920;2022-11-13T02:03:11;10.60;99.90
3602;DHT22;1815;50.950;6.920;2022-11-13T02:05:56;10.70;99.90
3602;DHT22;1815;50.950;6.920;2022-11-13T02:08:40;10.60;99.90
3602;DHT22;1815;50.950;6.920;2022-11-13T02:11:26;10.60;99.90
3602;DHT22;1815;50.950;6.920;2022-11-13T02:14:11;10.60;99.90
3602;DHT22;1815;50.950;6.920;2022-11-13T02:16:59;10.60;99.90
3602;DHT22;1815;50.950;6.920;2022-11-13T02:19:49;10.60;99.90
3602;DHT22;1815;50.950;6.920;2022-11-13T02:25:31;10.50;99.90
3602;DHT22;1815;50.950;6.920;2022-11-13T02:28:16;10.50;99.90
3602;DHT22;1815;50.950;6.920;2022-11-13T02:31:12;10.50;99.90
3602;DHT22;1815;50.950;6.920;2022-11-13T02:33:56;10.50;99.90
3602;DHT22;1815;50.950;6.920;2022-11-13T02:36:40;10.40;99.90
3602;DHT22;1815;50.950;6.920;2022-11-13T02:39:24;10.40;99.90
3602;DHT22;1815;50.950;6.920;2022-11-13T02:42:08;10.40;99.90
3602;DHT22;1815;50.950;6.920;2022-11-13T02:44:52;10.40;99.90
3602;DHT22;1815;50.950;6.920;2022-11-13T02:47:37;10.40;99.90
3602;DHT22;1815;50.950;6.920;2022-11-13T02:50:21;10.30;99.90
3602;DHT22;1815;50.950;6.920;2022-11-13T02:53:06;10.30;99.90
3602;DHT22;1815;50.950;6.920;2022-11-13T02:55:50;10.30;99.90
3602;DHT22;1815;50.950;6.920;2022-11-13T02:58:34;10.30;99.90
3602;DHT22;1815;50.950;6.920;2022-11-13T03:01:19;10.30;99.90
3602;DHT22;1815;50.950;6.920;2022-11-13T03:04:03;10.20;99.90
3602;DHT22;1815;50.950;6.920;2022-11-13T03:06:47;10.20;99.90
3602;DHT22;1815;50.950;6.920;2022-11-13T03:09:32;10.20;99.90
3602;DHT22;1815;50.950;6.920;2022-11-13T03:12:16;10.10;99.90
3602;DHT22;1815;50.950;6.920;2022-11-13T03:15:01;10.10;99.90
3602;DHT22;1815;50.950;6.920;2022-11-13T03:17:45;10.10;99.90
3602;DHT22;1815;50.950;6.920;2022-11-13T03:20:30;10.10;99.90
3602;DHT22;1815;50.950;6.920;2022-11-13T03:23:14;10.10;99.90
3602;DHT22;1815;50.950;6.920;2022-11-13T03:26:03;10.10;99.90
3602;DHT22;1815;50.950;6.920;2022-11-13T03:28:49;10.10;99.90
3602;DHT22;1815;50.950;6.920;2022-11-13T03:31:33;10.10;99.90
3602;DHT22;1815;50.950;6.920;2022-11-13T03:34:18;10.00;99.90
3602;DHT22;1815;50.950;6.920;2022-11-13T03:37:02;10.00;99.90
3602;DHT22;1815;50.950;6.920;2022-11-13T03:39:46;9.90;99.90
3602;DHT22;1815;50.950;6.920;2022-11-13T03:42:30;9.90;99.90
3602;DHT22;1815;50.950;6.920;2022-11-13T03:45:14;9.80;99.90
3602;DHT22;1815;50.950;6.920;2022-11-13T03:47:59;9.80;99.90
3602;DHT22;1815;50.950;6.920;2022-11-13T03:50:46;9.80;99.90
3602;DHT22;1815;50.950;6.920;2022-11-13T03:53:32;9.70;99.90
3602;DHT22;1815;50.950;6.920;2022-11-13T03:56:16;9.70;99.90
3602;DHT22;1815;50.950;6.920;2022-11-13T03:59:00;9.70;99.90
3602;DHT22;1815;50.950;6.920;2022-11-13T04:01:45;9.70;99.90
3602;DHT22;1815;50.950;6.920;2022-11-13T04:04:29;9.60;99.90
3602;DHT22;1815;50.950;6.920;2022-11-13T04:07:14;9.60;99.90
3602;DHT22;1815;50.950;6.920;2022-11-13T04:09:58;9.60;99.90
3602;DHT22;1815;50.950;6.920;2022-11-13T04:12:42;9.60;99.90
3602;DHT22;1815;50.950;6.920;2022-11-13T04:15:27;9.60;99.90
3602;DHT22;1815;50.950;6.920;2022-11-13T04:18:11;9.50;99.90
3602;DHT22;1815;50.950;6.920;2022-11-13T04:21:02;9.50;99.90
3602;DHT22;1815;50.950;6.920;2022-11-13T04:23:47;9.50;99.90
3602;DHT22;1815;50.950;6.920;2022-11-13T04:26:32;9.50;99.90
3602;DHT22;1815;50.950;6.920;2022-11-13T04:29:16;9.50;99.90
3602;DHT22;1815;50.950;6.920;2022-11-13T04:32:00;9.50;99.90
3602;DHT22;1815;50.950;6.920;2022-11-13T04:34:44;9.50;99.90
3602;DHT22;1815;50.950;6.920;2022-11-13T04:37:29;9.50;99.90
3602;DHT22;1815;50.950;6.920;2022-11-13T04:40:13;9.60;99.90
3602;DHT22;1815;50.950;6.920;2022-11-13T04:42:58;9.60;99.90
3602;DHT22;1815;50.950;6.920;2022-11-13T04:45:42;9.60;99.90
3602;DHT22;1815;50.950;6.920;2022-11-13T04:48:26;9.60;99.90
3602;DHT22;1815;50.950;6.920;2022-11-13T04:51:11;9.60;99.90
3602;DHT22;1815;50.950;6.920;2022-11-13T04:53:56;9.60;99.90
3602;DHT22;1815;50.950;6.920;2022-11-13T04:56:40;9.60;99.90
3602;DHT22;1815;50.950;6.920;2022-11-13T04:59:25;9.70;99.90
3602;DHT22;1815;50.950;6.920;2022-11-13T05:02:09;9.70;99.90
3602;DHT22;1815;50.950;6.920;2022-11-13T05:04:53;9.70;99.90
3602;DHT22;1815;50.950;6.920;2022-11-13T05:07:38;9.60;99.90
3602;DHT22;1815;50.950;6.920;2022-11-13T05:10:22;9.60;99.90
3602;DHT22;1815;50.950;6.920;2022-11-13T05:13:06;9.60;99.90
3602;DHT22;1815;50.950;6.920;2022-11-13T05:15:58;9.60;99.90
3602;DHT22;1815;50.950;6.920;2022-11-13T05:18:42;9.60;99.90
3602;DHT22;1815;50.950;6.920;2022-11-13T05:21:27;9.60;99.90
3602;DHT22;1815;50.950;6.920;2022-11-13T05:24:11;9.50;99.90
3602;DHT22;1815;50.950;6.920;2022-11-13T05:26:56;9.50;99.90
3602;DHT22;1815;50.950;6.920;2022-11-13T05:29:40;9.50;99.90
3602;DHT22;1815;50.950;6.920;2022-11-13T05:32:24;9.50;99.90
3602;DHT22;1815;50.950;6.920;2022-11-13T05:35:08;9.50;99.90
3602;DHT22;1815;50.950;6.920;2022-11-13T05:37:53;9.50;99.90
3602;DHT22;1815;50.950;6.920;2022-11-13T05:40:37;9.40;99.90
3602;DHT22;1815;50.950;6.920;2022-11-13T05:43:21;9.40;99.90
3602;DHT22;1815;50.950;6.920;2022-11-13T05:46:11;9.40;99.90
3602;DHT22;1815;50.950;6.920;2022-11-13T05:48:58;9.40;99.90
3602;DHT22;1815;50.950;6.920;2022-11-13T05:51:43;9.40;99.90
3602;DHT22;1815;50.950;6.920;2022-11-13T05:54:27;9.40;99.90
3602;DHT22;1815;50.950;6.920;2022-11-13T05:57:11;9.30;99.90
3602;DHT22;1815;50.950;6.920;2022-11-13T05:59:56;9.30;99.90
3602;DHT22;1815;50.950;6.920;2022-11-13T06:02:40;9.30;99.90
3602;DHT22;1815;50.950;6.920;2022-11-13T06:05:24;9.30;99.90
3602;DHT22;1815;50.950;6.920;2022-11-13T06:08:08;9.30;99.90
3602;DHT22;1815;50.950;6.920;2022-11-13T06:10:58;9.30;99.90
3602;DHT22;1815;50.950;6.920;2022-11-13T06:13:42;9.20;99.90
3602;DHT22;1815;50.950;6.920;2022-11-13T06:16:35;9.20;99.90
3602;DHT22;1815;50.950;6.920;2022-11-13T06:19:20;9.20;99.90
3602;DHT22;1815;50.950;6.920;2022-11-13T06:22:04;9.20;99.90
3602;DHT22;1815;50.950;6.920;2022-11-13T06:24:49;9.10;99.90
3602;DHT22;1815;50.950;6.920;2022-11-13T06:27:33;9.10;99.90
3602;DHT22;1815;50.950;6.920;2022-11-13T06:30:17;9.10;99.90
3602;DHT22;1815;50.950;6.920;2022-11-13T06:33:02;9.20;99.90
3602;DHT22;1815;50.950;6.920;2022-11-13T06:35:46;9.10;99.90
3602;DHT22;1815;50.950;6.920;2022-11-13T06:38:35;9.10;99.90
3602;DHT22;1815;50.950;6.920;2022-11-13T06:41:22;9.10;99.90
3602;DHT22;1815;50.950;6.920;2022-11-13T06:44:07;9.10;99.90
3602;DHT22;1815;50.950;6.920;2022-11-13T06:46:51;9.10;99.90
3602;DHT22;1815;50.950;6.920;2022-11-13T06:49:35;9.10;99.90
3602;DHT22;1815;50.950;6.920;2022-11-13T06:52:19;9.10;99.90
3602;DHT22;1815;50.950;6.920;2022-11-13T06:55:04;9.10;99.90
3602;DHT22;1815;50.950;6.920;2022-11-13T06:57:49;9.10;99.90
3602;DHT22;1815;50.950;6.920;2022-11-13T07:00:33;9.20;99.90
3602;DHT22;1815;50.950;6.920;2022-11-13T07:03:18;9.20;99.90
3602;DHT22;1815;50.950;6.920;2022-11-13T07:06:05;9.20;99.90
3602;DHT22;1815;50.950;6.920;2022-11-13T07:08:50;9.20;99.90
3602;DHT22;1815;50.950;6.920;2022-11-13T07:11:35;9.30;99.90
3602;DHT22;1815;50.950;6.920;2022-11-13T07:14:19;9.30;99.90
3602;DHT22;1815;50.950;6.920;2022-11-13T07:17:03;9.30;99.90
3602;DHT22;1815;50.950;6.920;2022-11-13T07:19:48;9.30;99.90
3602;DHT22;1815;50.950;6.920;2022-11-13T07:22:32;9.30;99.90
3602;DHT22;1815;50.950;6.920;2022-11-13T07:25:16;9.30;99.90
3602;DHT22;1815;50.950;6.920;2022-11-13T07:28:01;9.30;99.90
3602;DHT22;1815;50.950;6.920;2022-11-13T07:30:45;9.40;99.90
3602;DHT22;1815;50.950;6.920;2022-11-13T07:33:29;9.40;99.90
3602;DHT22;1815;50.950;6.920;2022-11-13T07:36:14;9.40;99.90
3602;DHT22;1815;50.950;6.920;2022-11-13T07:38:58;9.40;99.90
3602;DHT22;1815;50.950;6.920;2022-11-13T07:41:43;9.50;99.90
3602;DHT22;1815;50.950;6.920;2022-11-13T07:44:27;9.60;99.90
3602;DHT22;1815;50.950;6.920;2022-11-13T07:47:12;9.60;99.90
3602;DHT22;1815;50.950;6.920;2022-11-13T07:49:56;9.70;99.90
3602;DHT22;1815;50.950;6.920;2022-11-13T07:52:40;9.70;99.90
3602;DHT22;1815;50.950;6.920;2022-11-13T07:55:25;9.80;99.90
3602;DHT22;1815;50.950;6.920;2022-11-13T07:58:10;9.90;99.90
3602;DHT22;1815;50.950;6.920;2022-11-13T08:00:54;9.90;99.90
3602;DHT22;1815;50.950;6.920;2022-11-13T08:03:38;10.00;99.90
3602;DHT22;1815;50.950;6.920;2022-11-13T08:06:23;10.00;99.90
3602;DHT22;1815;50.950;6.920;2022-11-13T08:09:07;10.10;99.90
3602;DHT22;1815;50.950;6.920;2022-11-13T08:11:51;10.10;99.90
3602;DHT22;1815;50.950;6.920;2022-11-13T08:14:36;10.20;99.90
3602;DHT22;1815;50.950;6.920;2022-11-13T08:17:20;10.30;99.90
3602;DHT22;1815;50.950;6.920;2022-11-13T08:20:06;10.40;99.90
3602;DHT22;1815;50.950;6.920;2022-11-13T08:22:51;10.40;99.90
3602;DHT22;1815;50.950;6.920;2022-11-13T08:25:35;10.50;99.90
3602;DHT22;1815;50.950;6.920;2022-11-13T08:28:20;10.60;99.90
3602;DHT22;1815;50.950;6.920;2022-11-13T08:31:09;10.60;99.90
3602;DHT22;1815;50.950;6.920;2022-11-13T08:33:54;10.70;99.90
3602;DHT22;1815;50.950;6.920;2022-11-13T08:36:38;10.80;99.90
3602;DHT22;1815;50.950;6.920;2022-11-13T08:39:23;10.90;99.90
3602;DHT22;1815;50.950;6.920;2022-11-13T08:42:07;11.00;99.90
3602;DHT22;1815;50.950;6.920;2022-11-13T08:44:52;11.10;99.90
3602;DHT22;1815;50.950;6.920;2022-11-13T08:47:36;11.20;99.90
3602;DHT22;1815;50.950;6.920;2022-11-13T08:50:21;11.30;99.90
3602;DHT22;1815;50.950;6.920;2022-11-13T08:53:05;11.30;99.90
3602;DHT22;1815;50.950;6.920;2022-11-13T08:55:50;11.50;99.90
3602;DHT22;1815;50.950;6.920;2022-11-13T08:58:34;11.60;99.90
3602;DHT22;1815;50.950;6.920;2022-11-13T09:01:18;11.60;99.90
3602;DHT22;1815;50.950;6.920;2022-11-13T09:04:05;11.70;99.90
3602;DHT22;1815;50.950;6.920;2022-11-13T09:06:50;11.80;99.90
3602;DHT22;1815;50.950;6.920;2022-11-13T09:09:35;11.90;99.90
3602;DHT22;1815;50.950;6.920;2022-11-13T09:12:20;11.90;99.90
3602;DHT22;1815;50.950;6.920;2022-11-13T09:15:04;12.00;99.90
3602;DHT22;1815;50.950;6.920;2022-11-13T09:17:48;12.10;99.90
3602;DHT22;1815;50.950;6.920;2022-11-13T09:20:33;12.20;99.90
3602;DHT22;1815;50.950;6.920;2022-11-13T09:23:17;12.40;99.90
3602;DHT22;1815;50.950;6.920;2022-11-13T09:26:02;12.50;99.90
3602;DHT22;1815;50.950;6.920;2022-11-13T09:28:46;12.60;99.90
3602;DHT22;1815;50.950;6.920;2022-11-13T09:31:31;12.70;99.90
3602;DHT22;1815;50.950;6.920;2022-11-13T09:34:15;12.80;99.90
3602;DHT22;1815;50.950;6.920;2022-11-13T09:37:00;13.00;99.90
3602;DHT22;1815;50.950;6.920;2022-11-13T09:39:45;13.10;99.90
3602;DHT22;1815;50.950;6.920;2022-11-13T09:42:30;13.30;99.90
3602;DHT22;1815;50.950;6.920;2022-11-13T09:45:16;13.40;99.90
3602;DHT22;1815;50.950;6.920;2022-11-13T09:48:22;13.50;99.90
3602;DHT22;1815;50.950;6.920;2022-11-13T09:51:17;13.60;99.90
3602;DHT22;1815;50.950;6.920;2022-11-13T09:54:04;13.80;99.90
3602;DHT22;1815;50.950;6.920;2022-11-13T10:05:53;14.20;99.90
3602;DHT22;1815;50.950;6.920;2022-11-13T10:08:54;14.30;99.90
3602;DHT22;1815;50.950;6.920;2022-11-13T10:11:44;14.50;99.90
3602;DHT22;1815;50.950;6.920;2022-11-13T10:14:39;14.50;99.90
3602;DHT22;1815;50.950;6.920;2022-11-13T10:23:37;14.90;99.90
3602;DHT22;1815;50.950;6.920;2022-11-13T10:26:24;15.00;99.90
3602;DHT22;1815;50.950;6.920;2022-11-13T10:29:14;15.10;99.90
3602;DHT22;1815;50.950;6.920;2022-11-13T10:38:08;15.30;99.90
3602;DHT22;1815;50.950;6.920;2022-11-13T10:41:26;15.30;94.50
3602;DHT22;1815;50.950;6.920;2022-11-13T10:44:25;15.50;99.90
3602;DHT22;1815;50.950;6.920;2022-11-13T10:47:18;15.60;98.20
3602;DHT22;1815;50.950;6.920;2022-11-13T10:50:20;15.70;99.90
3602;DHT22;1815;50.950;6.920;2022-11-13T10:53:14;15.80;96.10
3602;DHT22;1815;50.950;6.920;2022-11-13T10:55:59;15.90;99.30
3602;DHT22;1815;50.950;6.920;2022-11-13T10:58:44;16.00;98.80
3602;DHT22;1815;50.950;6.920;2022-11-13T11:01:28;16.10;99.70
3602;DHT22;1815;50.950;6.920;2022-11-13T11:04:22;16.20;99.00
3602;DHT22;1815;50.950;6.920;2022-11-13T11:07:20;16.20;97.90
3602;DHT22;1815;50.950;6.920;2022-11-13T11:13:21;16.30;92.20
3602;DHT22;1815;50.950;6.920;2022-11-13T11:16:08;16.40;93.90
3602;DHT22;1815;50.950;6.920;2022-11-13T11:19:00;16.50;95.80
3602;DHT22;1815;50.950;6.920;2022-11-13T11:21:47;16.50;95.70
3602;DHT22;1815;50.950;6.920;2022-11-13T11:24:37;16.50;94.50
3602;DHT22;1815;50.950;6.920;2022-11-13T11:27:29;16.50;90.80
3602;DHT22;1815;50.950;6.920;2022-11-13T11:30:21;16.60;92.00
3602;DHT22;1815;50.950;6.920;2022-11-13T11:33:33;16.60;91.90
3602;DHT22;1815;50.950;6.920;2022-11-13T11:37:27;16.60;87.10
3602;DHT22;1815;50.950;6.920;2022-11-13T11:39:48;16.70;92.10
3602;DHT22;1815;50.950;6.920;2022-11-13T11:45:28;16.90;91.50
3602;DHT22;1815;50.950;6.920;2022-11-13T11:48:24;16.90;91.70
3602;DHT22;1815;50.950;6.920;2022-11-13T12:00:30;17.10;90.90
3602;DHT22;1815;50.950;6.920;2022-11-13T12:03:28;17.20;90.90
3602;DHT22;1815;50.950;6.920;2022-11-13T12:09:34;17.20;90.90
3602;DHT22;1815;50.950;6.920;2022-11-13T12:12:42;17.30;91.00
3602;DHT22;1815;50.950;6.920;2022-11-13T12:15:48;17.30;87.60
3602;DHT22;1815;50.950;6.920;2022-11-13T12:18:55;17.40;90.00
3602;DHT22;1815;50.950;6.920;2022-11-13T12:22:10;17.40;89.20
3602;DHT22;1815;50.950;6.920;2022-11-13T12:25:23;17.40;90.10
3602;DHT22;1815;50.950;6.920;2022-11-13T12:28:34;17.50;89.30
3602;DHT22;1815;50.950;6.920;2022-11-13T12:34:56;17.50;88.80
3602;DHT22;1815;50.950;6.920;2022-11-13T12:40:40;17.60;86.60
3602;DHT22;1815;50.950;6.920;2022-11-13T12:46:55;17.70;89.00
3602;DHT22;1815;50.950;6.920;2022-11-13T12:49:40;17.70;89.30
3602;DHT22;1815;50.950;6.920;2022-11-13T12:52:25;17.80;90.00
3602;DHT22;1815;50.950;6.920;2022-11-13T12:55:27;17.80;88.80
3602;DHT22;1815;50.950;6.920;2022-11-13T12:58:24;17.80;88.00
3602;DHT22;1815;50.950;6.920;2022-11-13T13:04:16;17.90;89.50
3602;DHT22;1815;50.950;6.920;2022-11-13T13:10:33;17.90;88.90
3602;DHT22;1815;50.950;6.920;2022-11-13T13:13:33;17.80;88.30
3602;DHT22;1815;50.950;6.920;2022-11-13T13:16:28;17.90;87.90
3602;DHT22;1815;50.950;6.920;2022-11-13T13:19:24;17.80;84.70
3602;DHT22;1815;50.950;6.920;2022-11-13T13:22:23;17.80;87.10
3602;DHT22;1815;50.950;6.920;2022-11-13T13:25:27;17.80;87.80
3602;DHT22;1815;50.950;6.920;2022-11-13T13:28:18;17.80;84.50
3602;DHT22;1815;50.950;6.920;2022-11-13T13:44:07;17.80;83.90
3602;DHT22;1815;50.950;6.920;2022-11-13T13:46:57;17.90;82.90
3602;DHT22;1815;50.950;6.920;2022-11-13T13:49:41;17.90;82.40
3602;DHT22;1815;50.950;6.920;2022-11-13T13:52:30;17.90;83.20
3602;DHT22;1815;50.950;6.920;2022-11-13T13:55:36;17.90;83.90
3602;DHT22;1815;50.950;6.920;2022-11-13T13:58:34;17.90;84.30
3602;DHT22;1815;50.950;6.920;2022-11-13T14:01:30;18.00;83.50
3602;DHT22;1815;50.950;6.920;2022-11-13T14:04:20;18.00;83.80
3602;DHT22;1815;50.950;6.920;2022-11-13T14:07:21;18.00;83.20
3602;DHT22;1815;50.950;6.920;2022-11-13T14:10:16;18.00;80.20
3602;DHT22;1815;50.950;6.920;2022-11-13T14:13:02;18.00;82.70
3602;DHT22;1815;50.950;6.920;2022-11-13T14:15:47;18.00;83.00
3602;DHT22;1815;50.950;6.920;2022-11-13T14:18:32;18.00;82.20
3602;DHT22;1815;50.950;6.920;2022-11-13T14:21:19;18.00;82.70
3602;DHT22;1815;50.950;6.920;2022-11-13T14:24:14;18.00;80.40
3602;DHT22;1815;50.950;6.920;2022-11-13T14:27:02;18.00;81.50
3602;DHT22;1815;50.950;6.920;2022-11-13T14:30:00;18.00;81.60
3602;DHT22;1815;50.950;6.920;2022-11-13T14:32:45;18.00;81.50
3602;DHT22;1815;50.950;6.920;2022-11-13T14:35:29;18.00;82.10
3602;DHT22;1815;50.950;6.920;2022-11-13T14:38:24;17.90;80.90
3602;DHT22;1815;50.950;6.920;2022-11-13T14:41:37;17.90;79.90
3602;DHT22;1815;50.950;6.920;2022-11-13T14:44:31;17.90;79.90
3602;DHT22;1815;50.950;6.920;2022-11-13T14:47:25;17.80;80.30
3602;DHT22;1815;50.950;6.920;2022-11-13T14:53:09;17.70;80.10
3602;DHT22;1815;50.950;6.920;2022-11-13T14:55:55;17.60;80.50
3602;DHT22;1815;50.950;6.920;2022-11-13T14:58:43;17.50;80.60
3602;DHT22;1815;50.950;6.920;2022-11-13T15:01:30;17.40;80.30
3602;DHT22;1815;50.950;6.920;2022-11-13T15:04:15;17.30;79.70
3602;DHT22;1815;50.950;6.920;2022-11-13T15:07:01;17.30;79.60
3602;DHT22;1815;50.950;6.920;2022-11-13T15:09:46;17.20;80.20
3602;DHT22;1815;50.950;6.920;2022-11-13T15:12:31;17.20;80.20
3602;DHT22;1815;50.950;6.920;2022-11-13T15:15:21;17.20;80.50
3602;DHT22;1815;50.950;6.920;2022-11-13T15:18:08;17.10;80.60
3602;DHT22;1815;50.950;6.920;2022-11-13T15:20:52;17.00;81.60
3602;DHT22;1815;50.950;6.920;2022-11-13T15:23:37;16.90;80.70
3602;DHT22;1815;50.950;6.920;2022-11-13T15:26:22;16.80;80.50
3602;DHT22;1815;50.950;6.920;2022-11-13T15:29:07;16.70;80.70
3602;DHT22;1815;50.950;6.920;2022-11-13T15:31:51;16.60;81.10
3602;DHT22;1815;50.950;6.920;2022-11-13T15:34:35;16.50;81.40
3602;DHT22;1815;50.950;6.920;2022-11-13T15:37:20;16.30;81.20
3602;DHT22;1815;50.950;6.920;2022-11-13T15:40:05;16.20;81.30
3602;DHT22;1815;50.950;6.920;2022-11-13T15:42:49;16.10;81.60
3602;DHT22;1815;50.950;6.920;2022-11-13T15:45:33;16.00;82.10
3602;DHT22;1815;50.950;6.920;2022-11-13T15:48:18;15.90;83.10
3602;DHT22;1815;50.950;6.920;2022-11-13T15:51:02;15.70;82.20
3602;DHT22;1815;50.950;6.920;2022-11-13T15:53:50;15.60;82.40
3602;DHT22;1815;50.950;6.920;2022-11-13T15:56:36;15.40;82.70
3602;DHT22;1815;50.950;6.920;2022-11-13T15:59:20;15.30;82.80
3602;DHT22;1815;50.950;6.920;2022-11-13T16:02:04;15.20;83.10
3602;DHT22;1815;50.950;6.920;2022-11-13T16:04:49;15.10;83.20
3602;DHT22;1815;50.950;6.920;2022-11-13T16:07:36;15.00;83.30
3602;DHT22;1815;50.950;6.920;2022-11-13T16:10:22;14.90;83.50
3602;DHT22;1815;50.950;6.920;2022-11-13T16:13:07;14.70;83.70
3602;DHT22;1815;50.950;6.920;2022-11-13T16:15:52;14.60;84.20
3602;DHT22;1815;50.950;6.920;2022-11-13T16:18:36;14.50;84.60
3602;DHT22;1815;50.950;6.920;2022-11-13T16:21:21;14.40;84.70
3602;DHT22;1815;50.950;6.920;2022-11-13T16:24:05;14.30;85.00
3602;DHT22;1815;50.950;6.920;2022-11-13T16:26:56;14.20;85.30
3602;DHT22;1815;50.950;6.920;2022-11-13T16:29:40;14.10;85.70
3602;DHT22;1815;50.950;6.920;2022-11-13T16:32:25;14.10;86.30
3602;DHT22;1815;50.950;6.920;2022-11-13T16:35:14;14.00;87.10
3602;DHT22;1815;50.950;6.920;2022-11-13T16:37:58;13.90;87.70
3602;DHT22;1815;50.950;6.920;2022-11-13T16:40:43;13.80;87.40
3602;DHT22;1815;50.950;6.920;2022-11-13T16:43:28;13.70;88.00
3602;DHT22;1815;50.950;6.920;2022-11-13T16:46:45;13.60;88.50
3602;DHT22;1815;50.950;6.920;2022-11-13T16:49:31;13.60;90.00
3602;DHT22;1815;50.950;6.920;2022-11-13T16:52:17;13.50;89.40
3602;DHT22;1815;50.950;6.920;2022-11-13T16:55:01;13.50;90.00
3602;DHT22;1815;50.950;6.920;2022-11-13T16:57:45;13.40;90.10
3602;DHT22;1815;50.950;6.920;2022-11-13T17:00:30;13.20;92.70
3602;DHT22;1815;50.950;6.920;2022-11-13T17:03:15;13.20;91.90
3602;DHT22;1815;50.950;6.920;2022-11-13T17:05:59;13.20;91.80
3602;DHT22;1815;50.950;6.920;2022-11-13T17:08:43;13.20;91.80
3602;DHT22;1815;50.950;6.920;2022-11-13T17:11:30;13.10;91.80
3602;DHT22;1815;50.950;6.920;2022-11-13T17:14:14;13.10;91.70
3602;DHT22;1815;50.950;6.920;2022-11-13T17:16:58;13.10;91.70
3602;DHT22;1815;50.950;6.920;2022-11-13T17:19:43;13.00;91.80
3602;DHT22;1815;50.950;6.920;2022-11-13T17:22:27;13.00;92.10
3602;DHT22;1815;50.950;6.920;2022-11-13T17:25:11;12.90;92.20
3602;DHT22;1815;50.950;6.920;2022-11-13T17:27:56;12.90;92.30
3602;DHT22;1815;50.950;6.920;2022-11-13T17:30:40;12.80;92.40
3602;DHT22;1815;50.950;6.920;2022-11-13T17:33:24;12.80;92.70
3602;DHT22;1815;50.950;6.920;2022-11-13T17:36:09;12.70;92.80
3602;DHT22;1815;50.950;6.920;2022-11-13T17:38:59;12.60;92.90
3602;DHT22;1815;50.950;6.920;2022-11-13T17:41:46;12.60;93.30
3602;DHT22;1815;50.950;6.920;2022-11-13T17:44:41;12.50;93.40
3602;DHT22;1815;50.950;6.920;2022-11-13T17:47:49;12.50;93.80
3602;DHT22;1815;50.950;6.920;2022-11-13T17:50:55;12.40;94.40
3602;DHT22;1815;50.950;6.920;2022-11-13T17:53:51;12.40;94.30
3602;DHT22;1815;50.950;6.920;2022-11-13T17:57:01;12.30;94.40
3602;DHT22;1815;50.950;6.920;2022-11-13T17:59:52;12.30;94.60
3602;DHT22;1815;50.950;6.920;2022-11-13T18:02:42;12.20;94.50
3602;DHT22;1815;50.950;6.920;2022-11-13T18:05:34;12.20;95.00
3602;DHT22;1815;50.950;6.920;2022-11-13T18:08:24;12.20;95.30
3602;DHT22;1815;50.950;6.920;2022-11-13T18:11:21;12.10;95.40
3602;DHT22;1815;50.950;6.920;2022-11-13T18:14:16;12.10;95.90
3602;DHT22;1815;50.950;6.920;2022-11-13T18:17:04;12.00;95.80
3602;DHT22;1815;50.950;6.920;2022-11-13T18:20:21;12.00;96.10
3602;DHT22;1815;50.950;6.920;2022-11-13T18:23:29;12.00;96.40
3602;DHT22;1815;50.950;6.920;2022-11-13T18:26:25;11.90;96.50
3602;DHT22;1815;50.950;6.920;2022-11-13T18:29:14;11.90;96.60
3602;DHT22;1815;50.950;6.920;2022-11-13T18:32:04;11.80;96.90
3602;DHT22;1815;50.950;6.920;2022-11-13T18:34:51;11.80;97.30
3602;DHT22;1815;50.950;6.920;2022-11-13T18:37:40;11.70;97.10
3602;DHT22;1815;50.950;6.920;2022-11-13T18:40:34;11.70;97.30
3602;DHT22;1815;50.950;6.920;2022-11-13T18:43:33;11.70;97.60
3602;DHT22;1815;50.950;6.920;2022-11-13T18:46:40;11.60;97.90
3602;DHT22;1815;50.950;6.920;2022-11-13T18:49:25;11.60;97.90
3602;DHT22;1815;50.950;6.920;2022-11-13T18:52:16;11.50;98.60
3602;DHT22;1815;50.950;6.920;2022-11-13T18:55:06;11.50;98.40
3602;DHT22;1815;50.950;6.920;2022-11-13T18:57:55;11.50;98.50
3602;DHT22;1815;50.950;6.920;2022-11-13T19:00:48;11.40;98.80
3602;DHT22;1815;50.950;6.920;2022-11-13T19:03:36;11.40;99.00
3602;DHT22;1815;50.950;6.920;2022-11-13T19:06:36;11.40;99.10
3602;DHT22;1815;50.950;6.920;2022-11-13T19:09:32;11.40;99.10
3602;DHT22;1815;50.950;6.920;2022-11-13T19:12:19;11.30;99.50
3602;DHT22;1815;50.950;6.920;2022-11-13T19:15:21;11.30;99.60
3602;DHT22;1815;50.950;6.920;2022-11-13T19:18:35;11.30;99.90
3602;DHT22;1815;50.950;6.920;2022-11-13T19:21:28;11.30;99.90
3602;DHT22;1815;50.950;6.920;2022-11-13T19:24:21;11.30;99.90
3602;DHT22;1815;50.950;6.920;2022-11-13T19:27:10;11.30;99.90
3602;DHT22;1815;50.950;6.920;2022-11-13T19:30:03;11.30;99.90
3602;DHT22;1815;50.950;6.920;2022-11-13T19:33:08;11.30;99.90
3602;DHT22;1815;50.950;6.920;2022-11-13T19:35:56;11.30;99.90